Loos, Canada
Current Conditions -  °F | °C
As of 11:00 PM on Thursday 27 Nov 2014 (Local Time) from CYXS Reporting Station
Light Snow Light Snow  
Wind Chill: -25°   Ceiling: 6500
Heat Index: -16°   Visibility: 9mi
Dew Point: -18°   Wind: 12mph
Humidity: 85%   Direction: 340°NNW
Pressure: 29.75"   Gusts: 18mph
Location:  53.6°N, 120.72°W
Report Text: CYXS 280700Z AUTO 34010G16KT 9SM -SN FEW026 OVC065 M16/M18 A2975 RMK SLP128
Loading
Personal Weather Stations






























Interactive Weather Map New forecast layout! Learn more

10-Day Weather Forecast

Advertisements
Track Severe Weather on mobile